Davis, Missouri
Current Conditions -  °F | °C
As of 5:54 AM on Saturday 20 Dec 2014 (Local Time) from KSET Reporting Station
Haze Haze  
Wind Chill: 30°   Ceiling: 6500
Heat Index: 34°   Visibility: 5mi
Dew Point: 31°   Wind: 5mph
Humidity: 89%   Direction: 100°E
Pressure: 30.26"   Gusts: NA
Location:  39.0252°N, 90.9568°W
Report Text: KSET 201154Z AUTO 10004KT 5SM BR OVC065 01/M01 A3026 RMK AO2 SLP248 T00111006 10011 20011 55003
Loading
Personal Weather Stations






























Interactive Weather Map New forecast layout! Learn more

10-Day Weather Forecast

Advertisements
Track Severe Weather on mobile